Bei Facebook empfehlenBei Twitter postenGoogle plusPinterest

Das Wetter im Erzgebirge am 23.09.2015

Wetter und Klima am 23.09.2015 Holzhau im Erzgebirge (630m ü.NN)
Letzte gemessene Temperatur und Uhrzeit der Messung23:45:00 Uhr4.40 °C
Temperatur (Maximum / Höchstwert) und Uhrzeit der Messung14:15:00 Uhr13.10 °C
Temperatur (Minimum / Tiefstwert) und Uhrzeit der Messung23:45:004.40 °C
Errechneter Absolutwert der Temperaturschwankungen zwischen Tmin und Tmax des Tages8.70 K
Errechnete Tagesmitteltemperatur9.67708 °C
Gesamt - Niederschlag des Tages (in flüssiger Form)3.10 Liter / m²
Luftdruck (Maximum / Höchstwert) und Zeitpunkt der Messung23:30:00 Uhr1013.00 hPa
Luftdruck (Minimum / Tiefstwert) und Zeitpunkt der Messung02:15:00 Uhr1001.40 hPa
Errechneter Absolutwert der Luftdruckschwankungen des Tages11.60 hPa
Höchste gemessene Windgeschwindigkeit und Uhrzeit der Messung13:15:00 Uhr4.68 km/h
Errechnete Windhäufigkeit in Relation zu den Messwerten des Tages3.12500 %
Niedrigste Windkühle (Windchill) und Zeitpunkt der Messung23:45:00 Uhr4.40 °C
Taupunkt (Maximum / Höchstwert) und Uhrzeit der Messung13:15:00 Uhr11.60 °C
Taupunkt (Minimum / Tiefstwert) und Uhrzeit der Messung23:45:003.20 °C
Anzahl der automatisch eingelesenen Messwerte 96

Detaillierte Wetter- und Klima- Messwerte für den 23.09.2015 in Holzhau im Erzgebirge (630m ü.NN)
ZeitTemperaturLuftdruckRel. LuftfeuchteWindWindrichtungWindchillTaupunktNiederschlag l/m²
23:45:004.40 °C1012.80 hPa92.00 %3.20 °C3.10
23:30:004.80 °C1013.00 hPa92.00 %3.60 °C3.10
23:15:005.10 °C1012.90 hPa92.00 %3.90 °C3.10
23:00:005.50 °C1012.80 hPa92.00 %4.30 °C3.10
22:45:005.90 °C1012.50 hPa91.00 %4.50 °C3.10
22:30:006.10 °C1012.50 hPa91.00 %4.70 °C3.10
22:15:006.40 °C1012.40 hPa92.00 %5.20 °C3.10
22:00:006.60 °C1012.30 hPa91.00 %5.20 °C3.10
21:45:006.70 °C1012.10 hPa91.00 %5.30 °C3.10
21:30:007.00 °C1011.60 hPa91.00 %5.60 °C3.10
21:15:007.40 °C1011.50 hPa90.00 %5.90 °C3.10
21:00:008.00 °C1011.50 hPa91.00 %6.60 °C3.10
20:45:008.40 °C1011.30 hPa91.00 %7.00 °C3.10
20:30:008.60 °C1011.20 hPa91.00 %7.20 °C3.10
20:15:008.60 °C1010.80 hPa90.00 %7.10 °C3.10
20:00:008.80 °C1010.60 hPa90.00 %2.88 km/hSO8.80 °C7.30 °C3.10
19:45:009.00 °C1010.50 hPa89.00 %7.30 °C3.10
19:30:009.20 °C1010.50 hPa89.00 %7.50 °C3.10
19:15:009.40 °C1010.50 hPa89.00 %7.70 °C3.10
19:00:009.50 °C1010.40 hPa89.00 %7.80 °C3.10
18:45:009.80 °C1010.20 hPa88.00 %7.90 °C3.10
18:30:0010.00 °C1009.80 hPa88.00 %8.10 °C3.10
18:15:0010.40 °C1009.50 hPa87.00 %8.30 °C3.10
18:00:0010.80 °C1009.50 hPa87.00 %8.70 °C3.10
17:45:0010.90 °C1009.40 hPa86.00 %8.70 °C3.10
17:30:0011.10 °C1009.10 hPa86.00 %8.80 °C3.10
17:15:0011.50 °C1008.80 hPa86.00 %9.20 °C3.10
17:00:0012.10 °C1008.50 hPa86.00 %9.80 °C3.10
16:45:0012.60 °C1008.30 hPa87.00 %10.50 °C3.10
16:30:0012.80 °C1008.30 hPa87.00 %10.70 °C3.10
16:15:0012.10 °C1008.20 hPa88.00 %10.20 °C3.10
16:00:0011.30 °C1008.20 hPa87.00 %9.20 °C3.10
15:45:0010.90 °C1008.00 hPa87.00 %8.80 °C3.10
15:30:0010.90 °C1007.90 hPa86.00 %8.70 °C3.10
15:15:0011.10 °C1007.80 hPa85.00 %8.70 °C3.10
15:00:0011.40 °C1007.90 hPa84.00 %8.80 °C3.10
14:45:0012.20 °C1007.80 hPa85.00 %9.80 °C3.10
14:30:0012.90 °C1007.70 hPa86.00 %10.60 °C3.10
14:15:0013.10 °C1007.60 hPa88.00 %11.20 °C3.10
14:00:0012.60 °C1007.50 hPa88.00 %10.70 °C3.10
13:45:0012.80 °C1007.20 hPa90.00 %11.20 °C3.10
13:30:0013.00 °C1007.20 hPa90.00 %11.40 °C3.10
13:15:0012.90 °C1007.10 hPa92.00 %4.68 km/hSSW12.90 °C11.60 °C2.59
13:00:0012.60 °C1006.80 hPa93.00 %11.50 °C2.59
12:45:0012.20 °C1006.80 hPa93.00 %11.10 °C2.59
12:30:0011.60 °C1006.90 hPa94.00 %10.70 °C2.59
12:15:0011.50 °C1006.80 hPa94.00 %10.60 °C2.59
12:00:0011.20 °C1006.60 hPa94.00 %10.30 °C2.59
11:45:0011.00 °C1006.70 hPa94.00 %10.10 °C2.59
11:30:0010.90 °C1006.70 hPa95.00 %10.10 °C2.59
11:15:0010.40 °C1006.30 hPa95.00 %9.60 °C2.59
11:00:0010.00 °C1006.30 hPa95.00 %9.20 °C2.59
10:45:0010.20 °C1006.20 hPa95.00 %9.40 °C2.59
10:30:009.90 °C1006.00 hPa94.00 %9.00 °C2.59
10:15:009.90 °C1005.80 hPa94.00 %9.00 °C2.59
10:00:0010.00 °C1005.40 hPa95.00 %9.20 °C2.59
09:45:009.90 °C1005.20 hPa94.00 %9.00 °C2.59
09:30:009.60 °C1004.90 hPa94.00 %8.70 °C2.59
09:15:009.50 °C1004.90 hPa94.00 %8.60 °C2.59
09:00:009.40 °C1004.50 hPa94.00 %8.50 °C2.59
08:45:009.40 °C1004.50 hPa94.00 %8.50 °C2.07
08:30:009.30 °C1004.40 hPa94.00 %8.40 °C2.07
08:15:009.50 °C1004.30 hPa94.00 %8.60 °C2.07
08:00:009.40 °C1004.20 hPa94.00 %8.50 °C2.07
07:45:009.30 °C1004.00 hPa94.00 %8.40 °C1.55
07:30:009.30 °C1003.70 hPa94.00 %8.40 °C1.55
07:15:009.30 °C1003.60 hPa94.00 %8.40 °C1.03
07:00:009.30 °C1003.30 hPa94.00 %8.40 °C1.03
06:45:009.30 °C1003.10 hPa94.00 %8.40 °C0.51
06:30:009.40 °C1003.00 hPa94.00 %8.50 °C0.51
06:15:009.50 °C1002.80 hPa94.00 %8.60 °C 
06:00:009.40 °C1002.60 hPa94.00 %8.50 °C 
05:45:009.30 °C1002.50 hPa94.00 %2.88 km/hSW9.30 °C8.40 °C 
05:30:009.00 °C1002.30 hPa94.00 %8.10 °C 
05:15:008.90 °C1002.10 hPa93.00 %7.80 °C 
05:00:009.00 °C1001.80 hPa93.00 %7.90 °C 
04:45:009.20 °C1001.80 hPa93.00 %8.10 °C 
04:30:009.10 °C1001.90 hPa93.00 %8.00 °C 
04:15:009.20 °C1002.10 hPa93.00 %8.10 °C 
04:00:009.10 °C1002.20 hPa93.00 %8.00 °C 
03:45:009.10 °C1002.10 hPa93.00 %8.00 °C 
03:30:009.10 °C1001.90 hPa92.00 %7.90 °C 
03:15:009.10 °C1001.80 hPa92.00 %7.90 °C 
03:00:009.10 °C1001.80 hPa92.00 %7.90 °C 
02:45:009.10 °C1002.00 hPa92.00 %7.90 °C 
02:30:009.30 °C1001.80 hPa92.00 %8.10 °C 
02:15:009.30 °C1001.40 hPa92.00 %8.10 °C 
02:00:009.30 °C1001.70 hPa92.00 %8.10 °C 
01:45:009.30 °C1002.00 hPa91.00 %7.90 °C 
01:30:009.20 °C1002.20 hPa91.00 %7.80 °C 
01:15:009.30 °C1002.40 hPa91.00 %7.90 °C 
01:00:009.40 °C1002.40 hPa90.00 %7.80 °C 
00:45:009.50 °C1002.40 hPa90.00 %7.90 °C 
00:30:009.60 °C1002.60 hPa90.00 %8.00 °C 
00:15:009.80 °C1002.60 hPa89.00 %8.10 °C 
00:00:009.90 °C1002.80 hPa89.00 %8.20 °C 

Permanenter Link zu dieser Seite: Wetter im Erzgebirge am 23.09.2015
Performance-Info: Die Erstellung der Seite / Statistik(en) / Tabelle(n) erforderte 5 Datenbankserver-Abfrage(n) und dauerte 124 Millisekunden. (Dieser Messwert ist von der Gesamt-Auslastung des Servers abhängig.)
Erzgebirge - Wetter | Erzgebirge - Wetter (Mobilgeräte) | Komplette Klimadatenbank